createdAt,value
2022-11-01T00:00:55.695Z,6.15
2022-11-01T00:03:23.348Z,6.18
2022-11-01T00:05:50.744Z,5.75
2022-11-01T00:08:17.211Z,5.80
2022-11-01T00:10:44.622Z,6.20
2022-11-01T00:13:10.980Z,6.22
2022-11-01T00:15:37.491Z,5.80
2022-11-01T00:18:03.868Z,5.85
2022-11-01T00:20:30.271Z,5.78
2022-11-01T00:22:56.696Z,5.88
2022-11-01T00:25:23.079Z,6.13
2022-11-01T00:27:49.371Z,5.78
2022-11-01T00:30:16.554Z,5.93
2022-11-01T00:32:42.948Z,6.43
2022-11-01T00:35:09.432Z,5.80
2022-11-01T00:37:35.843Z,6.15
2022-11-01T00:40:02.228Z,6.13
2022-11-01T00:42:28.558Z,6.30
2022-11-01T00:44:55.959Z,6.13
2022-11-01T00:47:22.348Z,5.60
2022-11-01T00:49:48.685Z,6.05
2022-11-01T00:52:16.103Z,6.40
2022-11-01T00:54:42.458Z,6.95
2022-11-01T00:57:08.816Z,6.05
2022-11-01T00:59:38.312Z,5.82
2022-11-01T01:02:07.499Z,6.85
2022-11-01T01:04:33.956Z,5.88
2022-11-01T01:07:00.385Z,6.20
2022-11-01T01:09:26.805Z,5.60
2022-11-01T01:11:53.295Z,6.00
2022-11-01T01:14:19.714Z,6.05
2022-11-01T01:16:46.096Z,6.00
2022-11-01T01:19:12.426Z,5.32
2022-11-01T01:21:38.852Z,5.65
2022-11-01T01:24:05.302Z,5.63
2022-11-01T01:26:32.639Z,5.47
2022-11-01T01:29:00.468Z,5.25
2022-11-01T01:31:26.871Z,6.68
2022-11-01T01:33:53.287Z,5.90
2022-11-01T01:36:19.618Z,5.88
2022-11-01T01:38:46.002Z,6.38
2022-11-01T01:41:31.137Z,5.70
2022-11-01T01:43:57.571Z,5.85
2022-11-01T01:46:24.033Z,5.57
2022-11-01T01:48:53.327Z,5.22
2022-11-01T01:51:22.204Z,5.47
2022-11-01T01:53:50.896Z,5.47
2022-11-01T01:56:30.820Z,4.93
2022-11-01T01:59:01.951Z,5.25
2022-11-01T02:01:28.500Z,5.53
2022-11-01T02:03:54.930Z,5.43
2022-11-01T02:08:56.286Z,4.95
2022-11-01T02:11:22.832Z,5.60
2022-11-01T02:13:49.786Z,5.32
2022-11-01T02:16:19.301Z,5.18
2022-11-01T02:18:48.014Z,4.93
2022-11-01T02:21:20.517Z,5.28
2022-11-01T02:26:26.071Z,5.18
2022-11-01T02:28:52.415Z,4.70
2022-11-01T02:31:24.850Z,4.82
2022-11-01T02:34:04.822Z,5.47
2022-11-01T02:36:36.722Z,4.72
2022-11-01T02:39:08.956Z,4.78
2022-11-01T02:41:39.563Z,4.70
2022-11-01T02:44:07.863Z,5.07
2022-11-01T02:46:55.438Z,4.53
2022-11-01T02:49:22.356Z,4.90
2022-11-01T02:51:49.647Z,5.07
2022-11-01T02:54:19.360Z,4.30
2022-11-01T02:56:45.775Z,4.32
2022-11-01T02:59:15.998Z,4.20
2022-11-01T03:01:44.546Z,4.65
2022-11-01T03:04:11.032Z,5.05
2022-11-01T03:06:39.811Z,4.53
2022-11-01T03:09:09.996Z,3.75
2022-11-01T03:11:45.416Z,4.57
2022-11-01T03:14:14.797Z,5.03
2022-11-01T03:16:50.274Z,4.72
2022-11-01T03:19:16.576Z,4.63
2022-11-01T03:21:47.836Z,4.32
2022-11-01T03:24:17.960Z,4.32
2022-11-01T03:26:46.434Z,4.43
2022-11-01T03:29:13.936Z,4.00
2022-11-01T03:31:40.787Z,4.43
2022-11-01T03:34:12.209Z,3.85
2022-11-01T03:36:40.116Z,4.18
2022-11-01T03:39:18.794Z,4.22
2022-11-01T03:41:47.900Z,4.38
2022-11-01T03:44:14.469Z,4.40
2022-11-01T03:46:41.390Z,3.58
2022-11-01T03:49:07.814Z,3.55
2022-11-01T03:51:34.194Z,4.03
2022-11-01T03:54:00.562Z,4.13
2022-11-01T03:56:26.982Z,3.83
2022-11-01T03:58:53.510Z,3.55
2022-11-01T04:01:21.020Z,3.90
2022-11-01T04:03:47.580Z,3.55
2022-11-01T04:06:13.984Z,4.00
2022-11-01T04:08:40.716Z,4.18
2022-11-01T04:11:07.152Z,4.03
2022-11-01T04:13:33.614Z,3.60
2022-11-01T04:16:23.302Z,4.32
2022-11-01T04:19:08.202Z,3.97
2022-11-01T04:21:34.793Z,2.80
2022-11-01T04:24:01.159Z,2.45
2022-11-01T04:26:27.550Z,2.08
2022-11-01T04:28:57.493Z,2.28
2022-11-01T04:31:28.319Z,1.67
2022-11-01T04:33:55.676Z,1.52
2022-11-01T04:36:22.264Z,1.40
2022-11-01T04:38:50.462Z,1.52
2022-11-01T04:41:18.326Z,1.05
2022-11-01T04:43:45.195Z,1.42
2022-11-01T04:46:11.650Z,1.63
2022-11-01T04:48:38.025Z,1.13
2022-11-01T04:51:04.610Z,0.90
2022-11-01T04:53:31.068Z,0.82
2022-11-01T04:55:57.403Z,0.90
2022-11-01T04:58:23.831Z,0.68
2022-11-01T05:00:55.645Z,0.90
2022-11-01T05:03:22.012Z,0.90
2022-11-01T05:05:48.487Z,0.60
2022-11-01T05:08:14.943Z,0.60
2022-11-01T05:10:42.707Z,0.95
2022-11-01T05:13:09.800Z,0.47
2022-11-01T05:15:40.177Z,1.05
2022-11-01T05:18:14.490Z,0.77
2022-11-01T05:20:40.883Z,1.00
2022-11-01T05:23:07.323Z,0.80
2022-11-01T05:25:37.948Z,0.77
2022-11-01T05:28:10.447Z,0.45
2022-11-01T05:30:37.131Z,0.90
2022-11-01T05:33:04.216Z,0.70
2022-11-01T05:35:31.086Z,0.65
2022-11-01T05:37:57.624Z,0.88
2022-11-01T05:40:24.326Z,0.68
2022-11-01T05:42:50.753Z,0.80
2022-11-01T05:45:17.355Z,0.90
2022-11-01T05:47:44.049Z,1.05
2022-11-01T05:50:11.710Z,1.08
2022-11-01T05:52:38.190Z,0.73
2022-11-01T05:55:05.175Z,1.02
2022-11-01T05:57:33.496Z,0.80
2022-11-01T06:00:00.180Z,0.68
2022-11-01T06:02:26.698Z,0.98
2022-11-01T06:04:53.127Z,0.70
2022-11-01T06:07:19.521Z,0.85
2022-11-01T06:09:46.063Z,1.15
2022-11-01T06:12:12.435Z,0.90
2022-11-01T06:14:38.765Z,0.65
2022-11-01T06:17:05.079Z,0.90
2022-11-01T06:19:31.432Z,0.95
2022-11-01T06:21:57.946Z,0.90
2022-11-01T06:24:24.349Z,0.77
2022-11-01T06:26:50.737Z,0.60
2022-11-01T06:29:17.971Z,0.90
2022-11-01T06:31:44.303Z,0.75
2022-11-01T06:34:10.673Z,1.10
2022-11-01T06:36:37.876Z,0.63
2022-11-01T06:39:04.259Z,1.23
2022-11-01T06:41:31.662Z,0.90
2022-11-01T06:43:58.035Z,1.13
2022-11-01T06:46:24.432Z,0.93
2022-11-01T06:48:50.744Z,1.13
2022-11-01T06:51:17.083Z,1.20
2022-11-01T06:53:43.464Z,1.50
2022-11-01T06:56:09.859Z,1.05
2022-11-01T06:58:36.183Z,1.58
2022-11-01T07:01:02.996Z,1.30
2022-11-01T07:03:29.455Z,1.23
2022-11-01T07:05:55.811Z,1.20
2022-11-01T07:08:22.212Z,1.27
2022-11-01T07:10:50.076Z,1.10
2022-11-01T07:13:16.488Z,1.20
2022-11-01T07:15:44.203Z,1.83
2022-11-01T07:18:10.811Z,1.20
2022-11-01T07:20:44.007Z,1.55
2022-11-01T07:23:15.456Z,0.80
2022-11-01T07:25:42.161Z,1.48
2022-11-01T07:28:08.560Z,1.40
2022-11-01T07:30:35.181Z,1.17
2022-11-01T07:33:02.784Z,1.58
2022-11-01T07:35:29.839Z,1.40
2022-11-01T07:37:57.223Z,2.03
2022-11-01T07:40:27.506Z,1.40
2022-11-01T07:42:55.720Z,1.98
2022-11-01T07:45:22.427Z,1.35
2022-11-01T07:47:48.899Z,1.45
2022-11-01T07:50:15.237Z,1.70
2022-11-01T07:52:41.562Z,1.98
2022-11-01T07:55:08.392Z,1.58
2022-11-01T07:57:38.936Z,1.67
2022-11-01T08:00:06.227Z,1.52
2022-11-01T08:02:38.985Z,1.80
2022-11-01T08:05:05.440Z,1.95
2022-11-01T08:07:37.386Z,1.92
2022-11-01T08:10:04.042Z,1.92
2022-11-01T08:12:30.342Z,1.50
2022-11-01T08:14:56.647Z,1.88
2022-11-01T08:17:23.000Z,2.03
2022-11-01T08:19:49.328Z,2.10
2022-11-01T08:22:15.631Z,1.83
2022-11-01T08:24:41.988Z,1.73
2022-11-01T08:27:08.296Z,1.75
2022-11-01T08:29:34.590Z,1.98
2022-11-01T08:32:00.936Z,1.67
2022-11-01T08:34:27.280Z,1.83
2022-11-01T08:36:54.321Z,2.20
2022-11-01T08:39:20.641Z,2.10
2022-11-01T08:41:50.938Z,1.48
2022-11-01T08:44:18.136Z,2.10
2022-11-01T08:46:44.876Z,2.40
2022-11-01T08:49:11.911Z,2.08
2022-11-01T08:51:38.402Z,1.88
2022-11-01T08:54:06.011Z,2.50
2022-11-01T08:56:32.350Z,2.28
2022-11-01T08:58:58.877Z,2.35
2022-11-01T09:01:27.068Z,1.85
2022-11-01T09:03:57.370Z,2.33
2022-11-01T09:06:24.179Z,2.40
2022-11-01T09:08:50.529Z,1.92
2022-11-01T09:11:16.928Z,2.13
2022-11-01T09:13:43.287Z,2.00
2022-11-01T09:16:09.626Z,2.03
2022-11-01T09:18:36.195Z,2.70
2022-11-01T09:21:02.687Z,2.15
2022-11-01T09:23:29.295Z,1.83
2022-11-01T09:26:06.789Z,2.20
2022-11-01T09:28:34.030Z,2.03
2022-11-01T09:31:15.777Z,2.15
2022-11-01T09:33:47.013Z,2.85
2022-11-01T09:36:13.428Z,2.22
2022-11-01T09:38:39.798Z,2.67
2022-11-01T09:41:25.044Z,2.47
2022-11-01T09:43:52.832Z,3.22
2022-11-01T09:48:52.896Z,3.00
2022-11-01T09:51:21.286Z,2.65
2022-11-01T09:53:49.499Z,2.95
2022-11-01T09:56:22.723Z,2.33
2022-11-01T09:59:01.507Z,2.78
2022-11-01T10:01:28.057Z,2.72
2022-11-01T10:04:01.402Z,2.92
2022-11-01T10:06:30.720Z,2.17
2022-11-01T10:09:08.478Z,2.45
2022-11-01T10:11:38.064Z,2.38
2022-11-01T10:14:04.927Z,2.25
2022-11-01T10:16:38.573Z,2.58
2022-11-01T10:19:11.019Z,2.63
2022-11-01T10:24:17.450Z,2.15
2022-11-01T10:26:45.333Z,2.42
2022-11-01T10:29:23.455Z,2.63
2022-11-01T10:31:51.732Z,2.30
2022-11-01T10:34:33.364Z,2.95
2022-11-01T10:37:14.996Z,2.90
2022-11-01T10:39:55.529Z,2.03
2022-11-01T10:42:23.347Z,2.60
2022-11-01T10:44:55.109Z,2.50
2022-11-01T10:47:22.797Z,2.65
2022-11-01T10:50:07.743Z,2.72
2022-11-01T10:52:42.539Z,2.83
2022-11-01T10:55:12.939Z,2.72
2022-11-01T10:57:43.712Z,2.55
2022-11-01T11:00:15.353Z,2.60
2022-11-01T11:02:44.704Z,2.22
2022-11-01T11:05:17.346Z,1.95
2022-11-01T11:07:43.852Z,2.50
2022-11-01T11:10:18.356Z,2.15
2022-11-01T11:12:48.389Z,2.63
2022-11-01T11:15:23.129Z,2.60
2022-11-01T11:17:51.918Z,2.58
2022-11-01T11:20:21.107Z,2.58
2022-11-01T11:22:47.676Z,1.83
2022-11-01T11:25:15.758Z,2.05
2022-11-01T11:27:47.540Z,1.95
2022-11-01T11:30:14.823Z,2.20
2022-11-01T11:32:47.585Z,1.85
2022-11-01T11:35:13.904Z,1.98
2022-11-01T11:37:54.999Z,2.75
2022-11-01T11:40:25.659Z,2.00
2022-11-01T11:42:53.430Z,1.98
2022-11-01T11:45:29.601Z,2.28
2022-11-01T11:48:14.766Z,2.30
2022-11-01T11:50:41.496Z,2.05
2022-11-01T11:53:19.162Z,1.98
2022-11-01T11:55:47.424Z,2.53
2022-11-01T11:58:33.252Z,1.80
2022-11-01T12:01:04.027Z,1.95
2022-11-01T12:03:33.779Z,2.00
2022-11-01T12:06:01.815Z,1.55
2022-11-01T12:08:30.967Z,1.85
2022-11-01T12:10:58.004Z,2.17
2022-11-01T12:13:43.842Z,2.10
2022-11-01T12:16:14.232Z,2.03
2022-11-01T12:18:55.866Z,2.60
2022-11-01T12:21:27.407Z,2.03
2022-11-01T12:23:56.331Z,1.70
2022-11-01T12:26:23.448Z,1.75
2022-11-01T12:28:58.536Z,2.45
2022-11-01T12:31:30.263Z,1.75
2022-11-01T12:34:01.574Z,1.85
2022-11-01T12:36:30.566Z,2.08
2022-11-01T12:39:06.693Z,2.22
2022-11-01T12:41:32.982Z,1.85
2022-11-01T12:44:05.480Z,1.95
2022-11-01T12:49:02.472Z,1.70
2022-11-01T12:51:31.202Z,1.77
2022-11-01T12:54:15.434Z,1.95
2022-11-01T12:56:41.943Z,1.75
2022-11-01T12:59:10.280Z,1.70
2022-11-01T13:01:39.709Z,1.95
2022-11-01T13:04:21.487Z,1.60
2022-11-01T13:06:47.782Z,1.92
2022-11-01T13:09:27.854Z,1.95
2022-11-01T13:12:08.011Z,2.30
2022-11-01T13:14:49.755Z,1.70
2022-11-01T13:17:23.840Z,1.90
2022-11-01T13:19:50.151Z,1.77
2022-11-01T13:22:24.827Z,1.85
2022-11-01T13:24:56.974Z,2.60
2022-11-01T13:27:23.319Z,2.22
2022-11-01T13:29:51.993Z,1.88
2022-11-01T13:32:25.152Z,1.73
2022-11-01T13:35:00.728Z,1.70
2022-11-01T13:37:43.417Z,1.90
2022-11-01T13:42:42.283Z,1.58
2022-11-01T13:47:51.945Z,1.58
2022-11-01T13:50:32.061Z,1.45
2022-11-01T13:53:02.282Z,1.83
2022-11-01T13:55:39.541Z,2.20
2022-11-01T13:58:06.941Z,1.35
2022-11-01T14:00:44.158Z,1.73
2022-11-01T14:03:17.797Z,1.85
2022-11-01T14:05:44.698Z,1.60
2022-11-01T14:08:15.613Z,1.65
2022-11-01T14:10:46.493Z,1.92
2022-11-01T14:13:17.764Z,1.58
2022-11-01T14:15:53.205Z,2.08
2022-11-01T14:18:19.569Z,1.52
2022-11-01T14:20:47.347Z,1.50
2022-11-01T14:23:27.191Z,2.00
2022-11-01T14:26:12.313Z,2.20
2022-11-01T14:28:45.282Z,1.80
2022-11-01T14:31:13.236Z,1.52
2022-11-01T14:33:39.816Z,1.50
2022-11-01T14:36:06.890Z,1.90
2022-11-01T14:38:36.605Z,1.40
2022-11-01T14:41:03.861Z,1.40
2022-11-01T14:43:34.520Z,1.70
2022-11-01T14:46:02.924Z,1.73
2022-11-01T14:48:37.876Z,1.55
2022-11-01T14:51:14.718Z,1.35
2022-11-01T14:53:42.328Z,1.35
2022-11-01T14:56:19.587Z,1.42
2022-11-01T14:58:45.944Z,1.52
2022-11-01T15:01:14.025Z,1.90
2022-11-01T15:03:46.224Z,1.80
2022-11-01T15:06:27.563Z,2.00
2022-11-01T15:08:58.496Z,1.33
2022-11-01T15:11:28.883Z,1.70
2022-11-01T15:13:55.639Z,1.90
2022-11-01T15:16:23.168Z,1.80
2022-11-01T15:19:01.923Z,1.55
2022-11-01T15:21:31.133Z,1.85
2022-11-01T15:23:58.302Z,1.50
2022-11-01T15:26:26.701Z,1.48
2022-11-01T15:28:58.243Z,1.25
2022-11-01T15:31:24.815Z,1.52
2022-11-01T15:34:01.984Z,1.50
2022-11-01T15:36:33.089Z,1.98
2022-11-01T15:39:00.619Z,1.67
2022-11-01T15:41:31.813Z,1.58
2022-11-01T15:43:59.327Z,1.25
2022-11-01T15:46:27.324Z,1.33
2022-11-01T15:48:54.755Z,1.10
2022-11-01T15:51:24.412Z,1.77
2022-11-01T15:54:01.296Z,1.58
2022-11-01T15:56:40.656Z,1.50
2022-11-01T15:59:13.020Z,1.67
2022-11-01T16:01:39.533Z,1.67
2022-11-01T16:04:08.314Z,1.58
2022-11-01T16:06:42.496Z,1.73
2022-11-01T16:09:38.212Z,2.10
2022-11-01T16:12:06.707Z,1.45
2022-11-01T16:14:37.677Z,1.67
2022-11-01T16:17:20.597Z,1.60
2022-11-01T16:19:51.327Z,1.60
2022-11-01T16:22:28.431Z,1.17
2022-11-01T16:25:00.272Z,1.60
2022-11-01T16:27:27.268Z,1.90
2022-11-01T16:29:53.748Z,1.50
2022-11-01T16:32:24.221Z,1.63
2022-11-01T16:34:50.871Z,1.58
2022-11-01T16:37:21.280Z,1.70
2022-11-01T16:39:47.655Z,1.83
2022-11-01T16:42:13.976Z,1.85
2022-11-01T16:44:40.324Z,1.80
2022-11-01T16:47:06.723Z,1.67
2022-11-01T16:49:33.047Z,1.70
2022-11-01T16:51:59.391Z,2.08
2022-11-01T16:54:25.831Z,2.03
2022-11-01T16:56:53.632Z,2.00
2022-11-01T16:59:27.554Z,2.13
2022-11-01T17:01:55.585Z,1.83
2022-11-01T17:04:22.824Z,1.52
2022-11-01T17:06:49.858Z,1.83
2022-11-01T17:09:17.679Z,2.45
2022-11-01T17:11:50.739Z,2.47
2022-11-01T17:14:18.102Z,2.25
2022-11-01T17:16:45.183Z,2.47
2022-11-01T17:19:17.419Z,2.85
2022-11-01T17:21:44.179Z,3.00
2022-11-01T17:24:18.908Z,1.90
2022-11-01T17:26:45.672Z,1.70
2022-11-01T17:29:13.723Z,1.80
2022-11-01T17:31:40.149Z,1.55
2022-11-01T17:34:06.514Z,1.95
2022-11-01T17:36:35.066Z,2.05
2022-11-01T17:39:02.172Z,2.78
2022-11-01T17:41:28.576Z,1.85
2022-11-01T17:43:54.941Z,2.08
2022-11-01T17:46:24.118Z,1.85
2022-11-01T17:48:50.512Z,1.95
2022-11-01T17:51:17.936Z,1.90
2022-11-01T17:53:44.594Z,2.30
2022-11-01T17:56:11.027Z,2.50
2022-11-01T17:58:37.462Z,2.10
2022-11-01T18:01:05.105Z,1.92
2022-11-01T18:03:33.642Z,2.60
2022-11-01T18:05:59.963Z,1.95
2022-11-01T18:08:27.264Z,2.05
2022-11-01T18:11:01.167Z,2.10
2022-11-01T18:13:46.369Z,2.17
2022-11-01T18:16:24.938Z,3.40
2022-11-01T18:19:03.708Z,3.53
2022-11-01T18:21:31.823Z,2.67
2022-11-01T18:24:00.467Z,2.00
2022-11-01T18:26:30.152Z,1.98
2022-11-01T18:29:02.459Z,2.67
2022-11-01T18:31:33.423Z,2.20
2022-11-01T18:34:16.603Z,1.98
2022-11-01T18:36:46.040Z,2.40
2022-11-01T18:39:16.506Z,2.28
2022-11-01T18:41:46.593Z,2.38
2022-11-01T18:44:13.150Z,2.50
2022-11-01T18:46:44.007Z,3.03
2022-11-01T18:49:12.715Z,2.20
2022-11-01T18:51:39.349Z,2.60
2022-11-01T18:54:08.841Z,2.10
2022-11-01T18:56:35.694Z,3.20
2022-11-01T18:59:02.012Z,3.80
2022-11-01T19:01:32.043Z,1.60
2022-11-01T19:04:01.180Z,2.55
2022-11-01T19:06:27.595Z,2.38
2022-11-01T19:08:58.324Z,2.20
2022-11-01T19:11:28.499Z,2.50
2022-11-01T19:13:58.236Z,2.70
2022-11-01T19:16:24.649Z,2.45
2022-11-01T19:18:52.251Z,2.60
2022-11-01T19:21:19.764Z,3.03
2022-11-01T19:23:50.074Z,3.05
2022-11-01T19:26:25.935Z,2.70
2022-11-01T19:28:53.099Z,2.40
2022-11-01T19:31:25.031Z,2.40
2022-11-01T19:33:55.439Z,2.83
2022-11-01T19:36:23.870Z,2.13
2022-11-01T19:38:50.798Z,2.60
2022-11-01T19:41:22.760Z,2.90
2022-11-01T19:43:50.190Z,2.35
2022-11-01T19:46:18.620Z,1.95
2022-11-01T19:48:45.520Z,2.70
2022-11-01T19:51:18.423Z,2.45
2022-11-01T19:53:45.396Z,1.92
2022-11-01T19:56:26.099Z,2.53
2022-11-01T19:58:52.402Z,2.53
2022-11-01T20:01:23.965Z,2.38
2022-11-01T20:03:52.066Z,2.50
2022-11-01T20:06:21.508Z,2.38
2022-11-01T20:08:54.890Z,2.40
2022-11-01T20:11:21.302Z,2.35
2022-11-01T20:13:47.654Z,1.80
2022-11-01T20:16:14.231Z,2.10
2022-11-01T20:18:41.097Z,2.55
2022-11-01T20:21:07.469Z,2.45
2022-11-01T20:23:34.042Z,2.30
2022-11-01T20:26:00.976Z,2.60
2022-11-01T20:28:27.422Z,2.28
2022-11-01T20:30:53.751Z,2.72
2022-11-01T20:33:20.088Z,2.20
2022-11-01T20:35:46.680Z,2.50
2022-11-01T20:38:13.562Z,2.40
2022-11-01T20:40:39.942Z,2.40
2022-11-01T20:43:06.946Z,2.47
2022-11-01T20:45:36.308Z,2.25
2022-11-01T20:48:03.296Z,2.00
2022-11-01T20:50:29.606Z,2.20
2022-11-01T20:52:55.971Z,2.53
2022-11-01T20:55:22.303Z,2.28
2022-11-01T20:57:48.630Z,2.58
2022-11-01T21:00:18.760Z,1.95
2022-11-01T21:02:45.782Z,2.60
2022-11-01T21:05:19.923Z,2.53
2022-11-01T21:07:48.058Z,2.30
2022-11-01T21:10:26.948Z,2.50
2022-11-01T21:12:53.247Z,2.53
2022-11-01T21:15:28.993Z,2.22
2022-11-01T21:18:22.899Z,2.30
2022-11-01T21:20:49.264Z,2.45
2022-11-01T21:23:21.724Z,3.17
2022-11-01T21:25:48.816Z,2.10
2022-11-01T21:28:35.191Z,1.95
2022-11-01T21:31:10.718Z,2.28
2022-11-01T21:33:38.651Z,2.35
2022-11-01T21:36:20.382Z,3.13
2022-11-01T21:38:48.615Z,2.35
2022-11-01T21:41:31.583Z,2.40
2022-11-01T21:44:00.227Z,2.85
2022-11-01T21:46:27.938Z,2.55
2022-11-01T21:48:57.982Z,2.92
2022-11-01T21:51:24.748Z,2.17
2022-11-01T21:53:51.139Z,2.70
2022-11-01T21:56:17.476Z,3.03
2022-11-01T21:58:43.814Z,2.35
2022-11-01T22:01:10.342Z,2.47
2022-11-01T22:03:36.787Z,2.45
2022-11-01T22:06:03.296Z,2.42
2022-11-01T22:08:29.628Z,2.85
2022-11-01T22:10:56.007Z,2.42
2022-11-01T22:13:22.419Z,2.63
2022-11-01T22:15:48.819Z,2.67
2022-11-01T22:18:15.175Z,1.85
2022-11-01T22:20:41.725Z,3.03
2022-11-01T22:23:08.096Z,2.45
2022-11-01T22:25:34.468Z,1.85
2022-11-01T22:28:00.802Z,2.15
2022-11-01T22:30:27.121Z,2.20
2022-11-01T22:32:53.443Z,2.30
2022-11-01T22:35:21.220Z,1.98
2022-11-01T22:37:48.034Z,2.03
2022-11-01T22:40:14.816Z,2.33
2022-11-01T22:42:41.328Z,2.92
2022-11-01T22:45:17.796Z,2.22
2022-11-01T22:47:45.177Z,2.10
2022-11-01T22:50:13.194Z,2.42
2022-11-01T22:52:41.875Z,2.28
2022-11-01T22:55:16.077Z,1.77
2022-11-01T22:57:45.775Z,2.35
2022-11-01T23:00:21.599Z,2.25
2022-11-01T23:02:48.177Z,1.95
2022-11-01T23:05:17.803Z,2.40
2022-11-01T23:07:44.151Z,2.10
2022-11-01T23:10:22.733Z,3.20
2022-11-01T23:13:09.273Z,2.40
2022-11-01T23:15:36.461Z,2.15
2022-11-01T23:18:16.055Z,2.25
2022-11-01T23:20:42.985Z,2.00
2022-11-01T23:23:12.989Z,2.42
2022-11-01T23:25:39.419Z,2.35
2022-11-01T23:28:05.794Z,2.35
2022-11-01T23:30:32.186Z,1.73
2022-11-01T23:32:59.104Z,2.58
2022-11-01T23:35:26.674Z,2.45
2022-11-01T23:37:53.591Z,1.85
2022-11-01T23:40:20.977Z,2.05
2022-11-01T23:42:48.320Z,2.30
2022-11-01T23:45:19.356Z,2.58
2022-11-01T23:47:45.824Z,2.03
2022-11-01T23:50:26.365Z,2.33
2022-11-01T23:52:54.267Z,2.40
2022-11-01T23:55:26.566Z,2.40
2022-11-01T23:57:54.172Z,2.53
